Time;durP1;ratioP1;P1;durP2;ratioP2;P2;SDS_P1;SDS_P2;PMS_P1;PMS_P2;Temp;Humidity;BMP_temperature;BMP_pressure;BME280_temperature;BME280_humidity;BME280_pressure;Samples;Min_cycle;Max_cycle;Signal;HPM_P1;HPM_P2
2021/03/19 00:00:11;;;;;;;44.55;18.83;;;2.70;99.90;;;;;;6270605;22;20012;-63
2021/03/19 00:02:38;;;;;;;48.63;18.77;;;2.60;99.90;;;;;;6270429;22;20008;-62
2021/03/19 00:05:09;;;;;;;50.83;20.67;;;2.60;99.90;;;;;;6269604;22;20007;-63
2021/03/19 00:07:53;;;;;;;52.67;21.48;;;2.60;99.90;;;;;;6242469;22;20428;-62
2021/03/19 00:10:27;;;;;;;33.80;14.20;;;2.50;99.90;;;;;;6243362;22;20007;-63
2021/03/19 00:12:54;;;;;;;52.35;20.63;;;2.60;99.90;;;;;;6269266;22;20031;-63
2021/03/19 00:15:25;;;;;;;51.53;19.58;;;2.50;99.90;;;;;;6270024;22;20427;-63
2021/03/19 00:17:51;;;;;;;53.60;23.13;;;2.40;99.90;;;;;;6269593;22;20035;-63
2021/03/19 00:20:17;;;;;;;55.85;23.02;;;2.40;99.90;;;;;;6269932;22;20004;-63
2021/03/19 00:22:43;;;;;;;58.80;25.95;;;2.40;99.90;;;;;;6270423;22;20387;-62
2021/03/19 00:25:10;;;;;;;60.90;25.42;;;2.30;99.90;;;;;;6270444;22;20080;-62
2021/03/19 00:27:36;;;;;;;57.40;23.35;;;2.40;99.90;;;;;;6269353;22;20600;-62
2021/03/19 00:30:05;;;;;;;56.08;22.38;;;2.30;99.90;;;;;;6267499;22;20008;-61
2021/03/19 00:32:31;;;;;;;48.53;19.27;;;2.30;99.90;;;;;;6269375;22;20007;-62
2021/03/19 00:34:57;;;;;;;52.80;21.65;;;2.30;99.90;;;;;;6269199;22;20014;-62
2021/03/19 00:37:22;;;;;;;59.55;24.05;;;2.30;99.90;;;;;;6268650;22;20000;-62
2021/03/19 00:39:48;;;;;;;54.70;22.58;;;2.30;99.90;;;;;;6269590;22;20007;-62
2021/03/19 00:42:13;;;;;;;51.80;21.63;;;2.30;99.90;;;;;;6270097;22;20332;-62
2021/03/19 00:44:41;;;;;;;64.63;25.50;;;2.30;99.90;;;;;;6270895;22;20006;-62
2021/03/19 00:47:07;;;;;;;64.70;25.15;;;2.20;99.90;;;;;;6269452;22;20003;-62
2021/03/19 00:49:33;;;;;;;59.80;24.60;;;2.20;99.90;;;;;;6269343;22;20004;-62
2021/03/19 00:51:59;;;;;;;65.22;25.73;;;2.30;99.90;;;;;;6269286;22;20014;-62
2021/03/19 00:54:25;;;;;;;62.10;22.33;;;2.10;99.90;;;;;;6269096;22;20003;-62
2021/03/19 00:56:50;;;;;;;60.85;23.77;;;2.10;99.90;;;;;;6269496;22;20163;-62
2021/03/19 00:59:16;;;;;;;59.97;24.05;;;2.10;99.90;;;;;;6269741;22;20011;-62
2021/03/19 01:01:42;;;;;;;67.97;28.52;;;2.00;99.90;;;;;;6270342;22;20019;-62
2021/03/19 01:04:07;;;;;;;62.58;25.83;;;1.90;99.90;;;;;;6269398;22;20003;-62
2021/03/19 01:06:33;;;;;;;59.95;24.55;;;1.80;99.90;;;;;;6269267;22;20090;-63
2021/03/19 01:08:59;;;;;;;65.95;24.85;;;1.70;99.90;;;;;;6268450;22;20026;-63
2021/03/19 01:11:27;;;;;;;65.40;23.98;;;1.80;99.90;;;;;;6269245;22;20382;-62
2021/03/19 01:13:53;;;;;;;60.60;24.58;;;1.80;99.90;;;;;;6269336;22;20091;-62
2021/03/19 01:16:20;;;;;;;64.72;24.15;;;1.80;99.90;;;;;;6269332;22;20039;-62
2021/03/19 01:18:46;;;;;;;68.65;27.85;;;1.60;99.90;;;;;;6269779;22;20427;-62
2021/03/19 01:21:13;;;;;;;69.40;26.15;;;1.50;99.90;;;;;;6242007;22;20065;-62
2021/03/19 01:23:39;;;;;;;59.42;24.38;;;1.50;99.90;;;;;;6269048;22;20075;-62
2021/03/19 01:26:04;;;;;;;74.10;27.95;;;1.60;99.90;;;;;;6241083;22;20046;-62
2021/03/19 01:28:30;;;;;;;65.70;24.10;;;1.50;99.90;;;;;;6269239;22;20011;-62
2021/03/19 01:30:56;;;;;;;55.40;22.05;;;1.60;99.90;;;;;;6268442;22;20007;-62
2021/03/19 01:33:22;;;;;;;78.03;30.17;;;1.90;99.90;;;;;;6242311;22;20023;-62
2021/03/19 01:35:48;;;;;;;73.00;26.80;;;1.70;99.90;;;;;;6267829;22;20004;-62
2021/03/19 01:38:13;;;;;;;70.55;26.83;;;1.60;99.90;;;;;;6269502;22;20032;-62
2021/03/19 01:40:43;;;;;;;69.13;26.77;;;1.50;99.90;;;;;;6269220;22;20008;-62
2021/03/19 01:43:11;;;;;;;67.28;25.63;;;1.50;99.90;;;;;;6268788;22;20740;-63
2021/03/19 01:45:58;;;;;;;67.13;26.65;;;1.30;99.90;;;;;;6269417;22;20028;-60
2021/03/19 01:49:02;;;;;;;61.75;25.00;;;1.20;99.90;;;;;;6267982;22;20011;-60
2021/03/19 01:52:04;;;;;;;63.13;23.70;;;1.20;99.90;;;;;;6268709;22;20000;-60
2021/03/19 01:55:07;;;;;;;65.60;26.63;;;1.30;99.90;;;;;;6268873;22;20019;-62
2021/03/19 01:58:10;;;;;;;66.47;24.98;;;1.20;99.90;;;;;;6268897;22;20350;-60
2021/03/19 02:01:13;;;;;;;67.18;26.75;;;1.00;99.90;;;;;;6268631;22;20072;-62
2021/03/19 02:04:16;;;;;;;67.25;27.30;;;1.10;99.90;;;;;;6269276;22;20003;-62
2021/03/19 02:07:19;;;;;;;68.85;27.90;;;1.10;99.90;;;;;;6268224;22;20004;-62
2021/03/19 02:10:23;;;;;;;68.15;26.20;;;1.20;99.90;;;;;;6241660;22;20008;-63
2021/03/19 02:13:26;;;;;;;70.63;28.60;;;1.40;99.90;;;;;;6269016;22;20010;-60
2021/03/19 02:16:29;;;;;;;69.97;25.55;;;1.40;99.90;;;;;;6267803;22;20015;-63
2021/03/19 02:19:32;;;;;;;64.57;26.30;;;1.50;99.90;;;;;;6269263;22;20003;-62
2021/03/19 02:22:35;;;;;;;71.35;26.35;;;1.60;99.90;;;;;;6267936;22;20042;-60
2021/03/19 02:25:38;;;;;;;68.78;26.45;;;1.60;99.90;;;;;;6270164;22;20059;-60
2021/03/19 02:28:42;;;;;;;69.28;26.42;;;1.70;99.90;;;;;;6271219;22;20004;-60
2021/03/19 02:31:10;;;;;;;67.07;27.52;;;1.80;99.90;;;;;;6271446;22;20084;-60
2021/03/19 02:33:47;;;;;;;66.60;27.60;;;1.80;99.90;;;;;;6271434;22;20782;-60
2021/03/19 02:36:17;;;;;;;68.78;26.27;;;1.70;99.90;;;;;;6271760;22;20008;-62
2021/03/19 02:38:43;;;;;;;71.97;28.20;;;1.80;99.90;;;;;;6272146;22;20363;-62
2021/03/19 02:41:08;;;;;;;78.90;28.33;;;1.70;99.90;;;;;;6243042;22;20086;-62
2021/03/19 02:43:34;;;;;;;77.45;30.60;;;1.80;99.90;;;;;;6272060;22;20007;-62
2021/03/19 02:46:00;;;;;;;72.85;27.95;;;1.90;99.90;;;;;;6272087;22;20370;-62
2021/03/19 02:48:25;;;;;;;68.63;28.15;;;1.80;99.90;;;;;;6271688;22;20045;-62
2021/03/19 02:50:51;;;;;;;76.03;30.13;;;1.80;99.90;;;;;;6270415;22;20003;-62
2021/03/19 02:53:20;;;;;;;74.97;29.95;;;;;;;;;;6272277;22;20424;-62
2021/03/19 02:55:46;;;;;;;78.97;32.05;;;1.70;99.90;;;;;;6245124;22;20083;-62
2021/03/19 02:58:12;;;;;;;82.53;34.42;;;1.60;99.90;;;;;;6272060;22;19999;-62
2021/03/19 03:00:38;;;;;;;85.07;36.15;;;1.60;99.90;;;;;;6272099;22;20022;-63
2021/03/19 03:03:04;;;;;;;84.85;34.78;;;1.70;99.90;;;;;;6270788;22;20007;-64
2021/03/19 03:05:30;;;;;;;78.18;33.00;;;1.70;99.90;;;;;;6271961;22;20000;-63
2021/03/19 03:07:56;;;;;;;68.40;25.40;;;1.80;99.90;;;;;;6272091;22;20011;-63
2021/03/19 03:10:27;;;;;;;69.07;27.25;;;1.80;99.90;;;;;;6272025;22;19996;-62
2021/03/19 03:12:53;;;;;;;68.70;31.63;;;1.80;99.90;;;;;;6270784;22;20038;-61
2021/03/19 03:15:19;;;;;;;66.65;25.88;;;1.80;99.90;;;;;;6272397;22;20332;-62
2021/03/19 03:17:47;;;;;;;71.53;29.30;;;1.80;99.90;;;;;;6272011;22;20011;-61
2021/03/19 03:20:17;;;;;;;74.43;30.27;;;1.80;99.90;;;;;;6271726;22;20026;-62
2021/03/19 03:22:43;;;;;;;65.90;30.00;;;1.60;99.90;;;;;;6271286;22;20064;-62
2021/03/19 03:25:12;;;;;;;67.43;27.02;;;1.70;99.90;;;;;;6271063;22;20328;-63
2021/03/19 03:27:38;;;;;;;59.30;24.58;;;1.70;99.90;;;;;;6273083;22;20416;-63
2021/03/19 03:30:09;;;;;;;71.93;29.35;;;1.80;99.90;;;;;;6273410;22;20015;-63
2021/03/19 03:32:35;;;;;;;58.45;22.75;;;1.60;99.90;;;;;;6273139;22;20534;-63
2021/03/19 03:35:00;;;;;;;70.65;29.48;;;1.60;99.90;;;;;;6272905;22;20007;-63
2021/03/19 03:37:26;;;;;;;67.60;26.60;;;1.50;99.90;;;;;;6273156;22;20409;-63
2021/03/19 03:39:51;;;;;;;63.85;23.23;;;1.20;99.90;;;;;;6273572;22;19999;-63
2021/03/19 03:42:17;;;;;;;69.32;27.42;;;1.30;99.90;;;;;;6273131;22;20496;-63
2021/03/19 03:44:43;;;;;;;55.00;23.35;;;1.40;99.90;;;;;;6273243;22;20008;-63
2021/03/19 03:47:09;;;;;;;71.03;27.80;;;1.30;99.90;;;;;;6273070;22;20010;-64
2021/03/19 03:49:35;;;;;;;54.22;20.35;;;1.20;99.90;;;;;;6273399;22;20003;-63
2021/03/19 03:52:00;;;;;;;68.20;25.60;;;1.30;99.90;;;;;;6273361;22;20008;-63
2021/03/19 03:54:28;;;;;;;71.28;27.10;;;1.10;99.90;;;;;;6273590;22;20423;-63
2021/03/19 03:56:53;;;;;;;69.20;27.00;;;1.10;99.90;;;;;;6272343;22;20004;-64
2021/03/19 03:59:19;;;;;;;74.28;29.80;;;1.10;99.90;;;;;;6273076;22;20088;-63
2021/03/19 04:01:44;;;;;;;48.28;18.40;;;1.10;99.90;;;;;;6245924;22;20065;-63
2021/03/19 04:04:12;;;;;;;65.60;27.23;;;1.00;99.90;;;;;;6271388;22;20057;-63
2021/03/19 04:06:38;;;;;;;72.80;26.35;;;1.00;99.90;;;;;;6270761;22;20004;-63
2021/03/19 04:09:04;;;;;;;61.88;23.42;;;0.90;99.90;;;;;;6271878;22;20015;-63
2021/03/19 04:11:30;;;;;;;69.70;27.50;;;0.90;99.90;;;;;;6272713;22;20003;-63
2021/03/19 04:13:56;;;;;;;53.72;19.40;;;0.90;99.90;;;;;;6271563;22;20006;-63
2021/03/19 04:16:22;;;;;;;69.28;26.73;;;0.90;99.90;;;;;;6271102;22;19999;-64
2021/03/19 04:18:47;;;;;;;68.60;25.30;;;0.90;99.90;;;;;;6271790;22;20000;-64
2021/03/19 04:21:14;;;;;;;66.90;25.67;;;0.70;99.90;;;;;;6271446;22;20525;-61
2021/03/19 04:23:43;;;;;;;70.43;26.15;;;0.60;99.90;;;;;;6272435;22;20000;-62
2021/03/19 04:26:23;;;;;;;70.47;24.83;;;0.50;99.90;;;;;;6271433;22;20049;-62
2021/03/19 04:28:49;;;;;;;;;;;0.40;99.90;;;;;;6246226;22;20042;-61
2021/03/19 04:31:15;;;;;;;64.78;23.60;;;0.40;99.90;;;;;;6269545;22;20156;-62
2021/03/19 04:33:40;;;;;;;69.55;24.73;;;0.30;99.90;;;;;;6272282;22;20020;-62
2021/03/19 04:36:35;;;;;;;70.85;24.58;;;0.30;99.90;;;;;;6271517;22;20004;-62
2021/03/19 04:39:06;;;;;;;69.25;23.33;;;0.30;99.90;;;;;;6269097;22;20000;-62
2021/03/19 04:41:32;;;;;;;66.07;22.98;;;0.10;99.90;;;;;;6272913;22;20012;-61
2021/03/19 04:43:59;;;;;;;68.30;24.65;;;0.20;99.90;;;;;;6271479;22;19996;-61
2021/03/19 04:46:25;;;;;;;64.38;26.20;;;0.00;99.90;;;;;;6272346;22;20031;-61
2021/03/19 04:48:50;;;;;;;71.65;23.58;;;0.10;99.90;;;;;;6272421;22;20451;-61
2021/03/19 04:51:18;;;;;;;72.40;26.55;;;0.30;99.90;;;;;;6269948;22;20011;-60
2021/03/19 04:53:44;;;;;;;62.65;23.63;;;0.20;99.90;;;;;;6273519;22;20546;-61
2021/03/19 04:56:09;;;;;;;62.72;24.08;;;0.20;99.90;;;;;;6271425;22;20841;-62
2021/03/19 04:58:35;;;;;;;67.38;25.63;;;0.20;99.90;;;;;;6272159;22;19996;-61
2021/03/19 05:01:00;;;;;;;51.42;19.10;;;0.20;99.90;;;;;;6271091;22;20004;-62
2021/03/19 05:03:26;;;;;;;70.82;25.20;;;0.30;99.90;;;;;;6245988;22;20008;-61
2021/03/19 05:05:52;;;;;;;63.40;24.85;;;0.30;99.90;;;;;;6271555;22;20000;-61
2021/03/19 05:08:17;;;;;;;68.07;25.60;;;0.30;99.90;;;;;;6272242;22;20006;-61
2021/03/19 05:10:43;;;;;;;67.55;23.50;;;0.40;99.90;;;;;;6273881;22;20620;-61
2021/03/19 05:13:10;;;;;;;58.50;23.08;;;0.50;99.90;;;;;;6271148;22;20403;-61
2021/03/19 05:15:37;;;;;;;63.22;24.00;;;0.30;99.90;;;;;;6271531;22;20092;-60
2021/03/19 05:18:04;;;;;;;63.05;23.08;;;0.30;99.90;;;;;;6268540;22;20006;-61
2021/03/19 05:20:29;;;;;;;60.80;20.77;;;0.30;99.90;;;;;;6271557;22;20081;-60
2021/03/19 05:22:56;;;;;;;54.80;20.90;;;0.40;99.90;;;;;;6273084;22;20550;-61
2021/03/19 05:25:28;;;;;;;61.38;25.08;;;0.50;99.90;;;;;;6271720;22;20027;-60
2021/03/19 05:27:54;;;;;;;62.58;23.40;;;0.40;99.90;;;;;;6245633;22;20451;-62
2021/03/19 05:30:21;;;;;;;59.25;22.25;;;0.50;99.90;;;;;;6270593;22;19997;-63
2021/03/19 05:32:47;;;;;;;53.05;19.15;;;0.40;99.90;;;;;;6271891;22;20084;-63
2021/03/19 05:35:13;;;;;;;56.08;23.15;;;0.50;99.90;;;;;;6242902;22;20347;-63
2021/03/19 05:37:40;;;;;;;59.88;23.45;;;0.40;99.90;;;;;;6270495;22;19999;-62
2021/03/19 05:40:11;;;;;;;60.55;24.63;;;0.20;99.90;;;;;;6267740;22;20008;-61
2021/03/19 05:42:37;;;;;;;72.40;26.05;;;0.20;99.90;;;;;;6268296;22;20023;-61
2021/03/19 05:45:20;;;;;;;60.08;25.85;;;0.00;99.90;;;;;;6267191;22;19999;-61
2021/03/19 05:47:46;;;;;;;72.32;26.45;;;0.00;99.90;;;;;;6272588;22;20011;-61
2021/03/19 05:50:29;;;;;;;60.22;24.42;;;-0.10;99.90;;;;;;6269841;22;20000;-61
2021/03/19 05:52:55;;;;;;;64.97;24.80;;;-0.20;99.90;;;;;;6271855;22;20004;-61
2021/03/19 05:55:24;;;;;;;59.33;24.23;;;-0.30;99.90;;;;;;6243846;22;20032;-61
2021/03/19 05:57:58;;;;;;;61.83;24.70;;;-0.20;99.90;;;;;;6269907;22;20025;-61
2021/03/19 06:00:25;;;;;;;49.75;20.27;;;-0.20;99.90;;;;;;6243805;22;20007;-61
2021/03/19 06:02:51;;;;;;;68.38;25.40;;;-0.20;99.90;;;;;;6270661;22;20035;-61
2021/03/19 06:05:29;;;;;;;59.20;22.90;;;-0.10;99.90;;;;;;6271034;22;20050;-61
2021/03/19 06:07:57;;;;;;;67.03;25.20;;;-0.10;99.90;;;;;;6244738;22;20086;-61
2021/03/19 06:10:42;;;;;;;65.00;24.23;;;-0.20;99.90;;;;;;6271986;22;20006;-60
2021/03/19 06:13:22;;;;;;;65.88;27.40;;;-0.20;99.90;;;;;;6269771;22;20095;-61
2021/03/19 06:15:53;;;;;;;63.47;27.90;;;0.00;99.90;;;;;;6271822;22;20023;-61
2021/03/19 06:18:39;;;;;;;63.65;25.55;;;-0.10;99.90;;;;;;6271394;22;20003;-61
2021/03/19 06:21:07;;;;;;;63.10;26.05;;;0.00;99.90;;;;;;6271442;22;20031;-61
2021/03/19 06:23:34;;;;;;;59.05;25.42;;;0.00;99.90;;;;;;6271619;22;20039;-63
2021/03/19 06:26:03;;;;;;;62.72;25.88;;;0.10;99.90;;;;;;6271912;22;20134;-61
2021/03/19 06:28:37;;;;;;;48.38;20.63;;;0.00;99.90;;;;;;6272104;22;20007;-62
2021/03/19 06:31:32;;;;;;;56.33;23.35;;;0.10;99.90;;;;;;6244283;22;20312;-62
2021/03/19 06:34:22;;;;;;;56.45;24.58;;;0.10;99.90;;;;;;6272055;22;20012;-62
2021/03/19 06:37:04;;;;;;;60.58;26.10;;;0.10;99.90;;;;;;6244531;22;20003;-62
2021/03/19 06:39:47;;;;;;;56.20;24.08;;;0.00;99.90;;;;;;6270994;22;20170;-62
2021/03/19 06:42:27;;;;;;;51.05;22.33;;;0.20;99.90;;;;;;6271279;22;20012;-62
2021/03/19 06:45:15;;;;;;;55.95;24.67;;;0.30;99.90;;;;;;6270974;22;20076;-62
2021/03/19 06:47:42;;;;;;;48.53;20.45;;;0.30;99.90;;;;;;6273057;22;20003;-61
2021/03/19 06:50:32;;;;;;;51.50;21.27;;;0.20;99.90;;;;;;6272392;22;20053;-62
2021/03/19 06:53:16;;;;;;;53.10;21.10;;;0.30;99.90;;;;;;6244784;22;20004;-62
2021/03/19 06:55:48;;;;;;;50.45;22.67;;;0.30;99.90;;;;;;6272007;22;20004;-63
2021/03/19 06:58:14;;;;;;;52.17;21.67;;;0.40;99.90;;;;;;6270206;22;20446;-63
2021/03/19 07:00:42;;;;;;;48.72;22.00;;;0.50;99.90;;;;;;6272869;22;20010;-62
2021/03/19 07:03:49;;;;;;;41.60;20.48;;;0.50;99.90;;;;;;6273796;22;20432;-62
2021/03/19 07:06:40;;;;;;;43.83;18.65;;;0.50;99.90;;;;;;6179467;23;20002;-62
2021/03/19 07:09:08;;;;;;;41.50;19.42;;;0.60;99.90;;;;;;6178878;23;20505;-62
2021/03/19 07:11:58;;;;;;;39.50;17.98;;;0.70;99.90;;;;;;6242506;22;20000;-62
2021/03/19 07:14:48;;;;;;;34.10;14.38;;;0.90;99.90;;;;;;6272643;22;20015;-62
2021/03/19 07:17:42;;;;;;;31.63;16.40;;;0.90;99.90;;;;;;6271989;22;20073;-62
2021/03/19 07:20:50;;;;;;;31.58;16.75;;;1.10;99.90;;;;;;6273008;22;20004;-62
2021/03/19 07:23:28;;;;;;;32.78;14.43;;;1.10;99.90;;;;;;6273213;22;20035;-61
2021/03/19 07:26:15;;;;;;;34.47;16.42;;;1.30;99.90;;;;;;6272406;22;20058;-62
2021/03/19 07:29:04;;;;;;;32.67;15.05;;;1.20;99.90;;;;;;6273883;22;20004;-62
2021/03/19 07:31:48;;;;;;;36.78;15.13;;;1.20;99.90;;;;;;6227199;22;20007;-64
2021/03/19 07:34:32;;;;;;;18.90;9.40;;;1.30;99.90;;;;;;6272466;22;20030;-64
2021/03/19 07:37:06;;;;;;;32.65;13.30;;;1.40;99.90;;;;;;6274354;22;20000;-64
2021/03/19 07:39:42;;;;;;;25.45;11.75;;;1.40;99.90;;;;;;6273363;22;20615;-64
2021/03/19 07:42:28;;;;;;;24.05;11.80;;;1.50;99.90;;;;;;6245508;22;20057;-64
2021/03/19 07:45:01;;;;;;;25.23;11.85;;;1.50;99.90;;;;;;6273319;22;20000;-63
2021/03/19 07:47:33;;;;;;;27.10;12.95;;;1.60;99.90;;;;;;6272501;22;20004;-63
2021/03/19 07:50:17;;;;;;;23.05;11.93;;;1.70;99.90;;;;;;6269045;22;20099;-64
2021/03/19 07:53:19;;;;;;;19.55;9.60;;;1.80;99.90;;;;;;6266970;22;20332;-64
2021/03/19 07:56:23;;;;;;;25.33;13.57;;;1.90;99.90;;;;;;6273678;22;20007;-64
2021/03/19 07:59:01;;;;;;;25.95;12.13;;;2.00;99.90;;;;;;6231014;22;20046;-64
2021/03/19 08:01:52;;;;;;;24.45;11.77;;;2.00;99.90;;;;;;6273083;22;20026;-64
2021/03/19 08:04:37;;;;;;;22.13;11.73;;;2.10;99.90;;;;;;6272858;22;20024;-62
2021/03/19 08:07:31;;;;;;;24.02;11.13;;;2.30;99.90;;;;;;6274014;22;20007;-62
2021/03/19 08:10:21;;;;;;;23.35;9.85;;;2.50;99.90;;;;;;6232611;22;20056;-62
2021/03/19 08:12:56;;;;;;;22.60;11.05;;;2.50;99.90;;;;;;6272389;22;20336;-62
2021/03/19 08:15:40;;;;;;;24.25;10.60;;;2.70;99.90;;;;;;6271762;22;20498;-62
2021/03/19 08:18:18;;;;;;;22.63;9.82;;;2.80;99.90;;;;;;6272527;22;20002;-62
2021/03/19 08:21:16;;;;;;;20.77;10.50;;;2.90;99.90;;;;;;6273863;22;20082;-64
2021/03/19 08:24:19;;;;;;;22.50;10.18;;;2.90;99.90;;;;;;6273805;22;20087;-62
2021/03/19 08:26:44;;;;;;;20.63;9.98;;;3.00;99.90;;;;;;6273920;22;20301;-62
2021/03/19 08:29:36;;;;;;;19.48;9.95;;;3.20;99.90;;;;;;6273331;22;20057;-62
2021/03/19 08:32:13;;;;;;;24.63;10.73;;;3.20;99.90;;;;;;6273910;22;20012;-62
2021/03/19 08:34:48;;;;;;;21.25;9.63;;;3.50;99.90;;;;;;6273821;22;20395;-62
2021/03/19 08:37:38;;;;;;;19.75;9.77;;;3.90;99.90;;;;;;6273417;22;20004;-62
2021/03/19 08:40:08;;;;;;;20.52;8.60;;;4.30;99.90;;;;;;6273504;22;20000;-62
2021/03/19 08:42:38;;;;;;;18.10;8.40;;;4.70;99.90;;;;;;6273915;22;20016;-62
2021/03/19 08:45:08;;;;;;;14.80;8.18;;;5.30;99.90;;;;;;6273994;22;20011;-61
2021/03/19 08:47:45;;;;;;;19.05;8.88;;;5.90;99.90;;;;;;6274295;22;20011;-62
2021/03/19 08:50:26;;;;;;;15.40;8.23;;;6.00;99.90;;;;;;6272338;22;20339;-62
2021/03/19 08:53:23;;;;;;;15.93;7.95;;;5.70;99.90;;;;;;6246405;22;20368;-62
2021/03/19 08:56:05;;;;;;;13.25;6.50;;;5.30;99.90;;;;;;6266271;22;20000;-62
2021/03/19 08:58:31;;;;;;;14.90;6.10;;;5.40;99.90;;;;;;6273245;22;20014;-62
2021/03/19 09:00:59;;;;;;;14.93;7.43;;;5.70;99.90;;;;;;6272992;22;20035;-62
2021/03/19 09:03:43;;;;;;;12.32;5.88;;;6.30;99.90;;;;;;6273018;22;20010;-62
2021/03/19 09:06:16;;;;;;;11.48;5.30;;;5.60;99.90;;;;;;6272252;22;19999;-62
2021/03/19 09:08:50;;;;;;;9.20;4.72;;;5.90;99.90;;;;;;6273533;22;20022;-60
2021/03/19 09:11:22;;;;;;;13.73;6.75;;;6.90;99.90;;;;;;6272659;22;20079;-60
2021/03/19 09:13:59;;;;;;;11.82;6.07;;;7.30;99.90;;;;;;6272783;22;20000;-62
2021/03/19 09:16:42;;;;;;;19.42;7.10;;;6.70;99.90;;;;;;6272734;22;20336;-62
2021/03/19 09:19:34;;;;;;;13.85;5.75;;;6.70;99.90;;;;;;6272202;22;20006;-63
2021/03/19 09:22:24;;;;;;;10.18;5.50;;;6.60;99.90;;;;;;6273372;22;20018;-62
2021/03/19 09:25:08;;;;;;;14.82;6.15;;;6.40;99.90;;;;;;6268452;22;20014;-60
2021/03/19 09:27:45;;;;;;;14.88;6.80;;;7.60;99.90;;;;;;6273743;22;20015;-61
2021/03/19 09:30:27;;;;;;;13.05;5.30;;;7.30;99.90;;;;;;6272275;22;20007;-60
2021/03/19 09:32:54;;;;;;;13.23;5.05;;;8.20;99.90;;;;;;6272667;22;20008;-62
2021/03/19 09:35:47;;;;;;;10.90;4.88;;;7.40;99.90;;;;;;6272470;22;20125;-62
2021/03/19 09:38:26;;;;;;;12.32;4.82;;;7.00;99.90;;;;;;6272581;22;20436;-62
2021/03/19 09:40:58;;;;;;;10.50;4.60;;;7.00;99.90;;;;;;6272724;22;20087;-62
2021/03/19 09:43:43;;;;;;;10.95;4.60;;;7.40;99.90;;;;;;6272005;22;20015;-62
2021/03/19 09:46:20;;;;;;;10.32;4.32;;;7.00;99.90;;;;;;6271881;22;20034;-63
2021/03/19 09:48:56;;;;;;;9.13;3.92;;;6.90;99.90;;;;;;6273109;22;20000;-62
2021/03/19 09:51:41;;;;;;;13.98;4.72;;;7.10;99.90;;;;;;6244415;22;20007;-62
2021/03/19 09:54:34;;;;;;;11.15;4.45;;;6.60;99.90;;;;;;6272656;22;20004;-62
2021/03/19 09:57:10;;;;;;;9.57;4.03;;;6.40;99.90;;;;;;6270544;22;20014;-62
2021/03/19 09:59:37;;;;;;;9.00;4.00;;;6.20;99.90;;;;;;6271059;22;20046;-62
2021/03/19 10:02:27;;;;;;;8.95;3.85;;;5.80;99.90;;;;;;6272354;22;20035;-62
2021/03/19 10:05:05;;;;;;;7.70;2.77;;;5.40;99.90;;;;;;6272370;22;20003;-62
2021/03/19 10:07:31;;;;;;;7.05;3.08;;;6.00;99.90;;;;;;6271638;22;20234;-62
2021/03/19 10:09:57;;;;;;;9.05;2.90;;;5.50;99.90;;;;;;6271723;22;20007;-62
2021/03/19 10:12:32;;;;;;;7.22;3.20;;;5.90;99.90;;;;;;6271686;22;20003;-62
2021/03/19 10:15:26;;;;;;;7.43;3.45;;;6.80;99.90;;;;;;6272549;22;20035;-63
2021/03/19 10:17:55;;;;;;;8.25;3.45;;;6.90;99.90;;;;;;6267786;22;20499;-62
2021/03/19 10:20:26;;;;;;;9.20;3.40;;;6.90;99.90;;;;;;6265956;22;20000;-60
2021/03/19 10:23:31;;;;;;;9.35;3.40;;;8.00;99.90;;;;;;6268570;22;20016;-61
2021/03/19 10:26:08;;;;;;;7.03;2.30;;;8.90;99.90;;;;;;6269085;22;20339;-62
2021/03/19 10:28:37;;;;;;;8.43;2.95;;;9.20;99.90;;;;;;6268036;22;20454;-62
2021/03/19 10:31:19;;;;;;;6.77;2.73;;;8.70;99.90;;;;;;6268262;22;20321;-62
2021/03/19 10:33:58;;;;;;;6.40;2.40;;;7.10;99.90;;;;;;6269065;22;20026;-62
2021/03/19 10:36:48;;;;;;;6.80;2.78;;;6.30;99.90;;;;;;6266377;22;20086;-62
2021/03/19 10:39:31;;;;;;;7.13;3.05;;;6.00;99.90;;;;;;6269081;22;20008;-62
2021/03/19 10:42:21;;;;;;;7.43;2.70;;;6.40;99.90;;;;;;6268383;22;20016;-62
2021/03/19 10:45:01;;;;;;;6.63;2.80;;;5.80;99.90;;;;;;6269584;22;20004;-62
2021/03/19 10:47:33;;;;;;;8.45;2.78;;;6.70;99.90;;;;;;6268496;22;20042;-62
2021/03/19 10:50:15;;;;;;;6.93;2.65;;;8.30;99.90;;;;;;6268756;22;20003;-63
2021/03/19 10:53:14;;;;;;;5.45;2.13;;;8.50;99.90;;;;;;6271865;22;20004;-62
2021/03/19 10:55:44;;;;;;;5.85;2.53;;;9.80;99.90;;;;;;6266593;22;20073;-62
2021/03/19 10:58:19;;;;;;;;;;;9.50;99.90;;;;;;6272185;22;20324;-64
2021/03/19 11:00:47;;;;;;;7.40;2.50;;;9.60;99.90;;;;;;6271259;22;19986;-62
2021/03/19 11:03:31;;;;;;;4.82;2.10;;;8.60;99.90;;;;;;6270536;22;20003;-63
2021/03/19 11:06:07;;;;;;;9.30;2.20;;;8.00;99.90;;;;;;6270668;22;20000;-63
2021/03/19 11:08:33;;;;;;;5.40;1.85;;;8.10;99.90;;;;;;6270683;22;20007;-63
2021/03/19 11:10:59;;;;;;;5.32;2.03;;;7.60;99.90;;;;;;6243787;22;20404;-63
2021/03/19 11:13:31;;;;;;;6.15;2.10;;;7.60;99.90;;;;;;6243186;22;20043;-63
2021/03/19 11:16:00;;;;;;;5.05;2.00;;;7.70;99.90;;;;;;6272567;22;20373;-63
2021/03/19 11:18:30;;;;;;;5.05;1.73;;;7.90;99.90;;;;;;6271856;22;20006;-63
2021/03/19 11:21:18;;;;;;;5.20;2.20;;;9.30;99.90;;;;;;6271842;22;20010;-63
2021/03/19 11:23:49;;;;;;;4.78;1.60;;;11.10;97.10;;;;;;6271450;22;20039;-63
2021/03/19 11:26:18;;;;;;;5.72;1.90;;;12.40;97.70;;;;;;6271695;22;20007;-63
2021/03/19 11:28:44;;;;;;;5.68;2.05;;;13.30;92.40;;;;;;6271237;22;20071;-63
2021/03/19 11:31:29;;;;;;;8.43;2.10;;;13.30;91.60;;;;;;6272165;22;20150;-63
2021/03/19 11:33:55;;;;;;;5.55;1.90;;;12.70;85.00;;;;;;6271927;22;20016;-64
2021/03/19 11:36:21;;;;;;;5.75;1.75;;;12.40;87.90;;;;;;6271179;22;20057;-63
2021/03/19 11:38:47;;;;;;;4.75;1.75;;;12.20;89.00;;;;;;6271659;22;20156;-64
2021/03/19 11:41:31;;;;;;;4.45;1.50;;;13.30;92.00;;;;;;6271843;22;20331;-64
2021/03/19 11:43:59;;;;;;;5.25;1.73;;;14.10;89.10;;;;;;6271522;22;19999;-64
2021/03/19 11:46:27;;;;;;;6.45;1.90;;;13.80;72.90;;;;;;6271118;22;20493;-61
2021/03/19 11:48:52;;;;;;;5.47;2.13;;;10.70;92.00;;;;;;6273173;22;20045;-62
2021/03/19 11:51:30;;;;;;;5.25;2.00;;;10.70;88.30;;;;;;6272861;22;20374;-62
2021/03/19 11:54:01;;;;;;;5.60;1.90;;;13.10;82.30;;;;;;6273353;22;19996;-64
2021/03/19 11:56:29;;;;;;;5.93;2.00;;;14.10;86.30;;;;;;6273045;22;20022;-64
2021/03/19 11:58:56;;;;;;;6.55;1.80;;;13.30;72.60;;;;;;6273010;22;20359;-64
2021/03/19 12:01:21;;;;;;;6.43;1.92;;;14.00;76.40;;;;;;6272088;22;20018;-65
2021/03/19 12:03:53;;;;;;;5.85;2.10;;;12.80;79.60;;;;;;6273994;22;20035;-62
2021/03/19 12:06:22;;;;;;;6.13;2.20;;;11.00;81.00;;;;;;6272278;22;20431;-62
2021/03/19 12:08:48;;;;;;;6.80;2.60;;;10.60;83.20;;;;;;6270497;22;20082;-62
2021/03/19 12:11:25;;;;;;;6.70;2.10;;;11.00;81.10;;;;;;6265372;22;20598;-63
2021/03/19 12:13:52;;;;;;;5.05;1.90;;;12.70;84.80;;;;;;6268923;22;20037;-65
2021/03/19 12:16:18;;;;;;;5.60;1.45;;;14.40;76.00;;;;;;6272479;22;20145;-62
2021/03/19 12:18:45;;;;;;;6.00;2.15;;;12.90;73.60;;;;;;6273575;22;20000;-62
2021/03/19 12:21:11;;;;;;;6.35;2.13;;;10.90;87.40;;;;;;6272953;22;20506;-62
2021/03/19 12:23:37;;;;;;;5.50;1.95;;;9.70;78.90;;;;;;6271748;22;20018;-62
2021/03/19 12:26:03;;;;;;;4.93;1.83;;;8.80;83.60;;;;;;6272961;22;20395;-62
2021/03/19 12:28:29;;;;;;;5.05;1.83;;;9.70;84.70;;;;;;6272199;22;20010;-62
2021/03/19 12:30:56;;;;;;;4.90;1.77;;;10.50;79.90;;;;;;6272878;22;20078;-62
2021/03/19 12:33:24;;;;;;;5.20;1.45;;;11.00;84.70;;;;;;6270631;22;20028;-62
2021/03/19 12:35:51;;;;;;;5.82;1.80;;;11.30;81.40;;;;;;6270339;22;20431;-62
2021/03/19 12:38:16;;;;;;;4.60;1.77;;;10.50;79.80;;;;;;6271410;22;20023;-62
2021/03/19 12:40:42;;;;;;;4.88;1.50;;;9.50;90.20;;;;;;6273065;22;20343;-62
2021/03/19 12:43:11;;;;;;;5.57;1.80;;;8.70;88.30;;;;;;6273436;22;20014;-62
2021/03/19 12:45:37;;;;;;;3.67;1.60;;;10.30;85.30;;;;;;6272363;22;20014;-64
2021/03/19 12:48:04;;;;;;;5.47;1.80;;;12.80;84.30;;;;;;6273078;22;20028;-62
2021/03/19 12:50:31;;;;;;;4.47;1.50;;;14.10;66.20;;;;;;6272428;22;19996;-62
2021/03/19 12:52:58;;;;;;;4.78;1.83;;;11.60;68.80;;;;;;6272837;22;20324;-62
2021/03/19 12:55:25;;;;;;;5.10;1.83;;;10.40;75.60;;;;;;6272444;22;20067;-62
2021/03/19 12:57:50;;;;;;;5.15;1.40;;;10.90;73.50;;;;;;6272719;22;20079;-62
2021/03/19 13:00:26;;;;;;;5.10;1.40;;;11.80;73.70;;;;;;6271647;22;20747;-65
2021/03/19 13:02:53;;;;;;;4.03;1.35;;;13.20;71.20;;;;;;6271770;22;20012;-64
2021/03/19 13:05:22;;;;;;;5.35;1.77;;;15.30;67.60;;;;;;6271991;22;20421;-62
2021/03/19 13:07:48;;;;;;;2.17;0.98;;;13.80;58.50;;;;;;6272530;22;20004;-62
2021/03/19 13:10:15;;;;;;;3.92;1.20;;;12.30;62.90;;;;;;6271128;22;20010;-61
2021/03/19 13:12:41;;;;;;;3.85;1.40;;;12.10;62.20;;;;;;6269956;22;20010;-62
2021/03/19 13:15:09;;;;;;;4.15;1.17;;;13.70;62.70;;;;;;6270551;22;20078;-64
2021/03/19 13:17:35;;;;;;;2.72;1.10;;;14.20;60.80;;;;;;6272460;22;20454;-64